sensor_id;sensor_type;location;lat;lon;timestamp;P1;durP1;ratioP1;P2;durP2;ratioP2
40595;SDS011;26304;48.794;9.820;2023-10-08T00:02:12;4.00;;;3.30;;
40595;SDS011;26304;48.794;9.820;2023-10-08T00:04:42;4.28;;;3.22;;
40595;SDS011;26304;48.794;9.820;2023-10-08T00:07:05;3.50;;;2.95;;
40595;SDS011;26304;48.794;9.820;2023-10-08T00:09:29;3.83;;;3.30;;
40595;SDS011;26304;48.794;9.820;2023-10-08T00:11:56;3.10;;;2.80;;
40595;SDS011;26304;48.794;9.820;2023-10-08T00:14:22;3.38;;;2.72;;
40595;SDS011;26304;48.794;9.820;2023-10-08T00:16:45;3.78;;;3.13;;
40595;SDS011;26304;48.794;9.820;2023-10-08T00:19:12;3.92;;;3.22;;
40595;SDS011;26304;48.794;9.820;2023-10-08T00:21:35;3.20;;;2.90;;
40595;SDS011;26304;48.794;9.820;2023-10-08T00:23:59;3.42;;;2.80;;
40595;SDS011;26304;48.794;9.820;2023-10-08T00:26:23;4.65;;;3.10;;
40595;SDS011;26304;48.794;9.820;2023-10-08T00:28:50;4.60;;;2.97;;
40595;SDS011;26304;48.794;9.820;2023-10-08T00:31:13;3.47;;;3.15;;
40595;SDS011;26304;48.794;9.820;2023-10-08T00:33:38;3.53;;;3.13;;
40595;SDS011;26304;48.794;9.820;2023-10-08T00:36:05;3.30;;;2.92;;
40595;SDS011;26304;48.794;9.820;2023-10-08T00:38:38;4.70;;;3.08;;
40595;SDS011;26304;48.794;9.820;2023-10-08T00:41:05;4.70;;;2.70;;
40595;SDS011;26304;48.794;9.820;2023-10-08T00:43:31;3.78;;;2.90;;
40595;SDS011;26304;48.794;9.820;2023-10-08T00:45:55;3.60;;;3.05;;
40595;SDS011;26304;48.794;9.820;2023-10-08T00:48:19;3.42;;;3.13;;
40595;SDS011;26304;48.794;9.820;2023-10-08T00:50:49;4.65;;;3.08;;
40595;SDS011;26304;48.794;9.820;2023-10-08T00:53:13;3.65;;;3.10;;
40595;SDS011;26304;48.794;9.820;2023-10-08T00:55:42;3.17;;;2.85;;
40595;SDS011;26304;48.794;9.820;2023-10-08T00:58:14;3.90;;;3.03;;
40595;SDS011;26304;48.794;9.820;2023-10-08T01:00:44;4.57;;;3.50;;
40595;SDS011;26304;48.794;9.820;2023-10-08T01:03:08;3.47;;;2.97;;
40595;SDS011;26304;48.794;9.820;2023-10-08T01:05:35;4.15;;;3.30;;
40595;SDS011;26304;48.794;9.820;2023-10-08T01:08:07;4.97;;;3.17;;
40595;SDS011;26304;48.794;9.820;2023-10-08T01:10:34;3.20;;;2.80;;
40595;SDS011;26304;48.794;9.820;2023-10-08T01:12:58;4.65;;;3.33;;
40595;SDS011;26304;48.794;9.820;2023-10-08T01:15:28;3.70;;;3.08;;
40595;SDS011;26304;48.794;9.820;2023-10-08T01:17:51;3.38;;;3.08;;
40595;SDS011;26304;48.794;9.820;2023-10-08T01:20:19;4.35;;;3.10;;
40595;SDS011;26304;48.794;9.820;2023-10-08T01:22:55;5.05;;;2.97;;
40595;SDS011;26304;48.794;9.820;2023-10-08T01:25:18;4.50;;;3.50;;
40595;SDS011;26304;48.794;9.820;2023-10-08T01:27:45;3.70;;;2.90;;
40595;SDS011;26304;48.794;9.820;2023-10-08T01:30:08;5.00;;;3.25;;
40595;SDS011;26304;48.794;9.820;2023-10-08T01:32:38;4.70;;;3.10;;
40595;SDS011;26304;48.794;9.820;2023-10-08T01:35:01;5.05;;;3.33;;
40595;SDS011;26304;48.794;9.820;2023-10-08T01:37:26;3.67;;;3.00;;
40595;SDS011;26304;48.794;9.820;2023-10-08T01:39:53;4.50;;;2.97;;
40595;SDS011;26304;48.794;9.820;2023-10-08T01:42:21;3.55;;;3.05;;
40595;SDS011;26304;48.794;9.820;2023-10-08T01:44:44;3.75;;;3.08;;
40595;SDS011;26304;48.794;9.820;2023-10-08T01:47:08;4.57;;;3.47;;
40595;SDS011;26304;48.794;9.820;2023-10-08T01:49:32;4.43;;;3.25;;
40595;SDS011;26304;48.794;9.820;2023-10-08T01:51:55;5.00;;;3.22;;
40595;SDS011;26304;48.794;9.820;2023-10-08T01:54:17;3.20;;;2.80;;
40595;SDS011;26304;48.794;9.820;2023-10-08T01:56:43;5.30;;;3.15;;
40595;SDS011;26304;48.794;9.820;2023-10-08T01:59:05;5.20;;;3.22;;
40595;SDS011;26304;48.794;9.820;2023-10-08T02:01:29;3.33;;;2.88;;
40595;SDS011;26304;48.794;9.820;2023-10-08T02:03:51;3.88;;;2.85;;
40595;SDS011;26304;48.794;9.820;2023-10-08T02:06:14;4.13;;;2.72;;
40595;SDS011;26304;48.794;9.820;2023-10-08T02:08:36;3.22;;;2.92;;
40595;SDS011;26304;48.794;9.820;2023-10-08T02:10:58;4.60;;;3.55;;
40595;SDS011;26304;48.794;9.820;2023-10-08T02:13:24;4.45;;;3.30;;
40595;SDS011;26304;48.794;9.820;2023-10-08T02:15:48;4.28;;;3.33;;
40595;SDS011;26304;48.794;9.820;2023-10-08T02:18:12;4.28;;;3.35;;
40595;SDS011;26304;48.794;9.820;2023-10-08T02:20:35;4.80;;;3.15;;
40595;SDS011;26304;48.794;9.820;2023-10-08T02:22:57;3.28;;;2.60;;
40595;SDS011;26304;48.794;9.820;2023-10-08T02:25:20;4.60;;;3.33;;
40595;SDS011;26304;48.794;9.820;2023-10-08T02:27:43;3.80;;;2.80;;
40595;SDS011;26304;48.794;9.820;2023-10-08T02:30:08;3.53;;;2.55;;
40595;SDS011;26304;48.794;9.820;2023-10-08T02:32:33;3.45;;;3.13;;
40595;SDS011;26304;48.794;9.820;2023-10-08T02:34:57;3.72;;;2.95;;
40595;SDS011;26304;48.794;9.820;2023-10-08T02:37:19;4.80;;;2.97;;
40595;SDS011;26304;48.794;9.820;2023-10-08T02:39:42;3.72;;;3.10;;
40595;SDS011;26304;48.794;9.820;2023-10-08T02:42:05;4.57;;;2.83;;
40595;SDS011;26304;48.794;9.820;2023-10-08T02:44:31;3.88;;;2.90;;
40595;SDS011;26304;48.794;9.820;2023-10-08T02:46:55;3.75;;;3.05;;
40595;SDS011;26304;48.794;9.820;2023-10-08T02:49:18;4.22;;;2.85;;
40595;SDS011;26304;48.794;9.820;2023-10-08T02:51:42;4.00;;;2.88;;
40595;SDS011;26304;48.794;9.820;2023-10-08T02:54:06;3.30;;;2.63;;
40595;SDS011;26304;48.794;9.820;2023-10-08T02:56:29;3.10;;;2.67;;
40595;SDS011;26304;48.794;9.820;2023-10-08T02:58:53;3.10;;;2.60;;
40595;SDS011;26304;48.794;9.820;2023-10-08T03:01:15;3.55;;;2.28;;
40595;SDS011;26304;48.794;9.820;2023-10-08T03:03:40;4.00;;;3.28;;
40595;SDS011;26304;48.794;9.820;2023-10-08T03:06:04;7.18;;;3.20;;
40595;SDS011;26304;48.794;9.820;2023-10-08T03:08:29;3.95;;;3.20;;
40595;SDS011;26304;48.794;9.820;2023-10-08T03:10:52;3.85;;;2.83;;
40595;SDS011;26304;48.794;9.820;2023-10-08T03:13:16;4.03;;;3.00;;
40595;SDS011;26304;48.794;9.820;2023-10-08T03:15:40;4.22;;;3.00;;
40595;SDS011;26304;48.794;9.820;2023-10-08T03:18:07;3.40;;;2.60;;
40595;SDS011;26304;48.794;9.820;2023-10-08T03:20:36;4.68;;;3.60;;
40595;SDS011;26304;48.794;9.820;2023-10-08T03:23:05;2.63;;;2.42;;
40595;SDS011;26304;48.794;9.820;2023-10-08T03:25:33;4.00;;;2.88;;
40595;SDS011;26304;48.794;9.820;2023-10-08T03:28:02;4.13;;;3.25;;
40595;SDS011;26304;48.794;9.820;2023-10-08T03:30:28;4.43;;;2.60;;
40595;SDS011;26304;48.794;9.820;2023-10-08T03:32:50;2.97;;;2.60;;
40595;SDS011;26304;48.794;9.820;2023-10-08T03:35:16;4.68;;;2.97;;
40595;SDS011;26304;48.794;9.820;2023-10-08T03:37:49;4.85;;;2.95;;
40595;SDS011;26304;48.794;9.820;2023-10-08T03:40:12;3.38;;;2.75;;
40595;SDS011;26304;48.794;9.820;2023-10-08T03:42:48;4.82;;;2.85;;
40595;SDS011;26304;48.794;9.820;2023-10-08T03:45:11;4.25;;;2.90;;
40595;SDS011;26304;48.794;9.820;2023-10-08T03:47:43;4.47;;;3.28;;
40595;SDS011;26304;48.794;9.820;2023-10-08T03:50:07;3.35;;;2.75;;
40595;SDS011;26304;48.794;9.820;2023-10-08T03:52:32;3.05;;;2.40;;
40595;SDS011;26304;48.794;9.820;2023-10-08T03:54:59;3.67;;;2.80;;
40595;SDS011;26304;48.794;9.820;2023-10-08T03:57:34;6.03;;;2.85;;
40595;SDS011;26304;48.794;9.820;2023-10-08T04:00:09;4.82;;;2.90;;
40595;SDS011;26304;48.794;9.820;2023-10-08T04:02:39;4.75;;;2.97;;
40595;SDS011;26304;48.794;9.820;2023-10-08T04:05:02;3.35;;;2.80;;
40595;SDS011;26304;48.794;9.820;2023-10-08T04:07:39;5.70;;;3.78;;
40595;SDS011;26304;48.794;9.820;2023-10-08T04:10:23;4.22;;;2.72;;
40595;SDS011;26304;48.794;9.820;2023-10-08T04:13:16;5.55;;;2.60;;
40595;SDS011;26304;48.794;9.820;2023-10-08T04:15:39;6.75;;;3.13;;
40595;SDS011;26304;48.794;9.820;2023-10-08T04:18:02;4.82;;;3.47;;
40595;SDS011;26304;48.794;9.820;2023-10-08T04:20:25;3.55;;;3.15;;
40595;SDS011;26304;48.794;9.820;2023-10-08T04:22:54;4.40;;;3.13;;
40595;SDS011;26304;48.794;9.820;2023-10-08T04:25:17;4.90;;;3.25;;
40595;SDS011;26304;48.794;9.820;2023-10-08T04:27:41;5.20;;;2.85;;
40595;SDS011;26304;48.794;9.820;2023-10-08T04:30:04;5.88;;;4.05;;
40595;SDS011;26304;48.794;9.820;2023-10-08T04:32:31;6.10;;;3.92;;
40595;SDS011;26304;48.794;9.820;2023-10-08T04:34:54;5.07;;;4.07;;
40595;SDS011;26304;48.794;9.820;2023-10-08T04:37:17;4.60;;;3.63;;
40595;SDS011;26304;48.794;9.820;2023-10-08T04:39:41;5.60;;;3.88;;
40595;SDS011;26304;48.794;9.820;2023-10-08T04:42:09;4.72;;;3.25;;
40595;SDS011;26304;48.794;9.820;2023-10-08T04:44:33;5.38;;;3.58;;
40595;SDS011;26304;48.794;9.820;2023-10-08T04:46:55;4.45;;;2.85;;
40595;SDS011;26304;48.794;9.820;2023-10-08T04:49:25;7.35;;;3.38;;
40595;SDS011;26304;48.794;9.820;2023-10-08T04:51:51;3.67;;;3.38;;
40595;SDS011;26304;48.794;9.820;2023-10-08T04:54:17;5.63;;;3.10;;
40595;SDS011;26304;48.794;9.820;2023-10-08T04:56:40;3.70;;;3.00;;
40595;SDS011;26304;48.794;9.820;2023-10-08T04:59:02;3.60;;;2.85;;
40595;SDS011;26304;48.794;9.820;2023-10-08T05:01:27;4.43;;;3.38;;
40595;SDS011;26304;48.794;9.820;2023-10-08T05:03:59;4.82;;;3.30;;
40595;SDS011;26304;48.794;9.820;2023-10-08T05:06:44;4.82;;;2.97;;
40595;SDS011;26304;48.794;9.820;2023-10-08T05:09:21;5.30;;;3.25;;
40595;SDS011;26304;48.794;9.820;2023-10-08T05:11:59;5.00;;;2.92;;
40595;SDS011;26304;48.794;9.820;2023-10-08T05:14:32;5.50;;;3.25;;
40595;SDS011;26304;48.794;9.820;2023-10-08T05:17:01;8.32;;;3.40;;
40595;SDS011;26304;48.794;9.820;2023-10-08T05:19:30;3.30;;;2.70;;
40595;SDS011;26304;48.794;9.820;2023-10-08T05:22:21;4.38;;;3.00;;
40595;SDS011;26304;48.794;9.820;2023-10-08T05:25:05;3.15;;;2.78;;
40595;SDS011;26304;48.794;9.820;2023-10-08T05:27:28;6.47;;;3.40;;
40595;SDS011;26304;48.794;9.820;2023-10-08T05:30:17;4.05;;;2.72;;
40595;SDS011;26304;48.794;9.820;2023-10-08T05:32:50;3.90;;;2.78;;
40595;SDS011;26304;48.794;9.820;2023-10-08T05:35:33;4.55;;;2.88;;
40595;SDS011;26304;48.794;9.820;2023-10-08T05:38:11;5.20;;;2.55;;
40595;SDS011;26304;48.794;9.820;2023-10-08T05:40:37;4.22;;;3.03;;
40595;SDS011;26304;48.794;9.820;2023-10-08T05:43:16;3.42;;;2.42;;
40595;SDS011;26304;48.794;9.820;2023-10-08T05:46:04;5.63;;;2.60;;
40595;SDS011;26304;48.794;9.820;2023-10-08T05:49:01;4.65;;;2.78;;
40595;SDS011;26304;48.794;9.820;2023-10-08T05:51:24;3.72;;;2.78;;
40595;SDS011;26304;48.794;9.820;2023-10-08T05:53:55;3.53;;;3.03;;
40595;SDS011;26304;48.794;9.820;2023-10-08T05:56:17;3.97;;;2.78;;
40595;SDS011;26304;48.794;9.820;2023-10-08T05:58:49;3.30;;;2.90;;
40595;SDS011;26304;48.794;9.820;2023-10-08T06:01:21;4.63;;;2.95;;
40595;SDS011;26304;48.794;9.820;2023-10-08T06:04:02;6.82;;;3.35;;
40595;SDS011;26304;48.794;9.820;2023-10-08T06:06:41;4.40;;;3.17;;
40595;SDS011;26304;48.794;9.820;2023-10-08T06:09:18;4.60;;;3.10;;
40595;SDS011;26304;48.794;9.820;2023-10-08T06:11:43;4.50;;;2.92;;
40595;SDS011;26304;48.794;9.820;2023-10-08T06:14:16;6.22;;;3.22;;
40595;SDS011;26304;48.794;9.820;2023-10-08T06:16:49;4.30;;;3.15;;
40595;SDS011;26304;48.794;9.820;2023-10-08T06:19:35;5.15;;;3.15;;
40595;SDS011;26304;48.794;9.820;2023-10-08T06:21:59;5.18;;;3.10;;
40595;SDS011;26304;48.794;9.820;2023-10-08T06:24:25;3.70;;;2.92;;
40595;SDS011;26304;48.794;9.820;2023-10-08T06:26:47;4.45;;;2.83;;
40595;SDS011;26304;48.794;9.820;2023-10-08T06:29:10;3.63;;;2.67;;
40595;SDS011;26304;48.794;9.820;2023-10-08T06:31:47;3.85;;;2.65;;
40595;SDS011;26304;48.794;9.820;2023-10-08T06:34:12;5.38;;;3.03;;
40595;SDS011;26304;48.794;9.820;2023-10-08T06:36:36;3.08;;;2.65;;
40595;SDS011;26304;48.794;9.820;2023-10-08T06:38:58;4.28;;;3.10;;
40595;SDS011;26304;48.794;9.820;2023-10-08T06:41:21;4.53;;;2.92;;
40595;SDS011;26304;48.794;9.820;2023-10-08T06:43:50;4.55;;;3.08;;
40595;SDS011;26304;48.794;9.820;2023-10-08T06:46:23;3.75;;;2.97;;
40595;SDS011;26304;48.794;9.820;2023-10-08T06:48:49;5.57;;;2.70;;
40595;SDS011;26304;48.794;9.820;2023-10-08T06:51:12;4.78;;;3.15;;
40595;SDS011;26304;48.794;9.820;2023-10-08T06:53:36;4.40;;;2.72;;
40595;SDS011;26304;48.794;9.820;2023-10-08T06:55:59;5.05;;;2.90;;
40595;SDS011;26304;48.794;9.820;2023-10-08T06:58:25;4.43;;;3.40;;
40595;SDS011;26304;48.794;9.820;2023-10-08T07:00:47;3.67;;;2.97;;
40595;SDS011;26304;48.794;9.820;2023-10-08T07:03:10;3.88;;;2.65;;
40595;SDS011;26304;48.794;9.820;2023-10-08T07:05:36;2.90;;;2.60;;
40595;SDS011;26304;48.794;9.820;2023-10-08T07:08:02;2.97;;;2.55;;
40595;SDS011;26304;48.794;9.820;2023-10-08T07:10:28;3.15;;;2.83;;
40595;SDS011;26304;48.794;9.820;2023-10-08T07:12:51;3.00;;;2.70;;
40595;SDS011;26304;48.794;9.820;2023-10-08T07:15:14;3.72;;;2.72;;
40595;SDS011;26304;48.794;9.820;2023-10-08T07:17:44;3.60;;;2.55;;
40595;SDS011;26304;48.794;9.820;2023-10-08T07:20:07;3.33;;;2.80;;
40595;SDS011;26304;48.794;9.820;2023-10-08T07:22:34;4.25;;;2.80;;
40595;SDS011;26304;48.794;9.820;2023-10-08T07:24:59;3.03;;;2.30;;
40595;SDS011;26304;48.794;9.820;2023-10-08T07:27:25;2.90;;;2.67;;
40595;SDS011;26304;48.794;9.820;2023-10-08T07:29:52;5.13;;;2.72;;
40595;SDS011;26304;48.794;9.820;2023-10-08T07:32:16;4.03;;;2.95;;
40595;SDS011;26304;48.794;9.820;2023-10-08T07:34:39;3.55;;;2.80;;
40595;SDS011;26304;48.794;9.820;2023-10-08T07:37:02;5.50;;;2.90;;
40595;SDS011;26304;48.794;9.820;2023-10-08T07:39:26;2.72;;;2.53;;
40595;SDS011;26304;48.794;9.820;2023-10-08T07:41:54;4.50;;;2.70;;
40595;SDS011;26304;48.794;9.820;2023-10-08T07:44:18;3.00;;;2.80;;
40595;SDS011;26304;48.794;9.820;2023-10-08T07:46:42;3.70;;;3.15;;
40595;SDS011;26304;48.794;9.820;2023-10-08T07:49:05;3.53;;;2.88;;
40595;SDS011;26304;48.794;9.820;2023-10-08T07:51:27;3.70;;;3.35;;
40595;SDS011;26304;48.794;9.820;2023-10-08T07:53:50;4.03;;;3.25;;
40595;SDS011;26304;48.794;9.820;2023-10-08T07:56:15;3.30;;;2.50;;
40595;SDS011;26304;48.794;9.820;2023-10-08T07:58:38;4.20;;;2.88;;
40595;SDS011;26304;48.794;9.820;2023-10-08T08:01:04;3.35;;;3.00;;
40595;SDS011;26304;48.794;9.820;2023-10-08T08:03:28;3.42;;;2.92;;
40595;SDS011;26304;48.794;9.820;2023-10-08T08:05:50;5.05;;;3.63;;
40595;SDS011;26304;48.794;9.820;2023-10-08T08:08:14;3.53;;;3.00;;
40595;SDS011;26304;48.794;9.820;2023-10-08T08:10:38;3.30;;;2.97;;
40595;SDS011;26304;48.794;9.820;2023-10-08T08:13:03;3.92;;;2.83;;
40595;SDS011;26304;48.794;9.820;2023-10-08T08:15:26;4.55;;;3.25;;
40595;SDS011;26304;48.794;9.820;2023-10-08T08:17:51;2.65;;;2.45;;
40595;SDS011;26304;48.794;9.820;2023-10-08T08:20:14;3.75;;;2.92;;
40595;SDS011;26304;48.794;9.820;2023-10-08T08:22:39;3.40;;;3.10;;
40595;SDS011;26304;48.794;9.820;2023-10-08T08:25:02;3.78;;;2.67;;
40595;SDS011;26304;48.794;9.820;2023-10-08T08:27:36;2.85;;;2.38;;
40595;SDS011;26304;48.794;9.820;2023-10-08T08:30:00;3.25;;;2.83;;
40595;SDS011;26304;48.794;9.820;2023-10-08T08:32:31;3.47;;;2.92;;
40595;SDS011;26304;48.794;9.820;2023-10-08T08:34:54;3.00;;;2.70;;
40595;SDS011;26304;48.794;9.820;2023-10-08T08:37:17;3.13;;;2.78;;
40595;SDS011;26304;48.794;9.820;2023-10-08T08:39:39;3.45;;;3.13;;
40595;SDS011;26304;48.794;9.820;2023-10-08T08:42:03;3.95;;;3.15;;
40595;SDS011;26304;48.794;9.820;2023-10-08T08:44:27;2.88;;;2.53;;
40595;SDS011;26304;48.794;9.820;2023-10-08T08:46:51;3.58;;;2.88;;
40595;SDS011;26304;48.794;9.820;2023-10-08T08:49:14;5.13;;;3.03;;
40595;SDS011;26304;48.794;9.820;2023-10-08T08:51:39;4.63;;;2.50;;
40595;SDS011;26304;48.794;9.820;2023-10-08T08:54:04;4.22;;;2.70;;
40595;SDS011;26304;48.794;9.820;2023-10-08T08:56:28;2.85;;;2.40;;
40595;SDS011;26304;48.794;9.820;2023-10-08T08:58:52;3.50;;;2.97;;
40595;SDS011;26304;48.794;9.820;2023-10-08T09:01:16;3.97;;;2.50;;
40595;SDS011;26304;48.794;9.820;2023-10-08T09:03:39;2.83;;;2.40;;
40595;SDS011;26304;48.794;9.820;2023-10-08T09:06:01;3.17;;;2.88;;
40595;SDS011;26304;48.794;9.820;2023-10-08T09:08:32;3.28;;;2.88;;
40595;SDS011;26304;48.794;9.820;2023-10-08T09:10:57;2.47;;;2.20;;
40595;SDS011;26304;48.794;9.820;2023-10-08T09:13:22;3.28;;;2.97;;
40595;SDS011;26304;48.794;9.820;2023-10-08T09:15:46;3.90;;;2.53;;
40595;SDS011;26304;48.794;9.820;2023-10-08T09:18:08;3.25;;;2.78;;
40595;SDS011;26304;48.794;9.820;2023-10-08T09:20:31;2.83;;;2.50;;
40595;SDS011;26304;48.794;9.820;2023-10-08T09:25:34;2.60;;;2.40;;
40595;SDS011;26304;48.794;9.820;2023-10-08T09:27:57;3.10;;;2.47;;
40595;SDS011;26304;48.794;9.820;2023-10-08T09:30:19;3.72;;;2.80;;
40595;SDS011;26304;48.794;9.820;2023-10-08T09:32:42;2.95;;;2.65;;
40595;SDS011;26304;48.794;9.820;2023-10-08T09:35:04;2.85;;;2.53;;
40595;SDS011;26304;48.794;9.820;2023-10-08T09:37:29;3.15;;;2.47;;
40595;SDS011;26304;48.794;9.820;2023-10-08T09:39:52;3.42;;;2.35;;
40595;SDS011;26304;48.794;9.820;2023-10-08T09:42:16;3.15;;;2.40;;
40595;SDS011;26304;48.794;9.820;2023-10-08T09:44:43;2.53;;;2.25;;
40595;SDS011;26304;48.794;9.820;2023-10-08T09:47:07;3.33;;;2.50;;
40595;SDS011;26304;48.794;9.820;2023-10-08T09:49:32;2.58;;;2.13;;
40595;SDS011;26304;48.794;9.820;2023-10-08T09:51:55;2.47;;;2.25;;
40595;SDS011;26304;48.794;9.820;2023-10-08T09:54:24;3.05;;;2.45;;
40595;SDS011;26304;48.794;9.820;2023-10-08T09:56:53;2.92;;;2.60;;
40595;SDS011;26304;48.794;9.820;2023-10-08T09:59:19;2.95;;;2.15;;
40595;SDS011;26304;48.794;9.820;2023-10-08T10:01:43;3.10;;;2.80;;
40595;SDS011;26304;48.794;9.820;2023-10-08T10:04:08;3.10;;;2.58;;
40595;SDS011;26304;48.794;9.820;2023-10-08T10:06:31;3.67;;;2.70;;
40595;SDS011;26304;48.794;9.820;2023-10-08T10:08:55;3.22;;;2.60;;
40595;SDS011;26304;48.794;9.820;2023-10-08T10:11:19;2.88;;;2.38;;
40595;SDS011;26304;48.794;9.820;2023-10-08T10:13:41;3.45;;;2.20;;
40595;SDS011;26304;48.794;9.820;2023-10-08T10:16:06;4.22;;;2.85;;
40595;SDS011;26304;48.794;9.820;2023-10-08T10:18:29;2.83;;;2.35;;
40595;SDS011;26304;48.794;9.820;2023-10-08T10:20:53;3.72;;;2.63;;
40595;SDS011;26304;48.794;9.820;2023-10-08T10:23:34;2.88;;;2.28;;
40595;SDS011;26304;48.794;9.820;2023-10-08T10:25:58;3.20;;;2.55;;
40595;SDS011;26304;48.794;9.820;2023-10-08T10:28:23;3.22;;;2.63;;
40595;SDS011;26304;48.794;9.820;2023-10-08T10:30:45;3.33;;;2.70;;
40595;SDS011;26304;48.794;9.820;2023-10-08T10:33:11;5.15;;;2.92;;
40595;SDS011;26304;48.794;9.820;2023-10-08T10:35:34;2.92;;;2.63;;
40595;SDS011;26304;48.794;9.820;2023-10-08T10:38:01;3.58;;;2.65;;
40595;SDS011;26304;48.794;9.820;2023-10-08T10:40:27;3.10;;;2.80;;
40595;SDS011;26304;48.794;9.820;2023-10-08T10:43:00;3.60;;;2.53;;
40595;SDS011;26304;48.794;9.820;2023-10-08T10:45:23;6.20;;;2.95;;
40595;SDS011;26304;48.794;9.820;2023-10-08T10:48:01;3.08;;;2.78;;
40595;SDS011;26304;48.794;9.820;2023-10-08T10:50:35;3.03;;;2.65;;
40595;SDS011;26304;48.794;9.820;2023-10-08T10:53:00;2.47;;;2.08;;
40595;SDS011;26304;48.794;9.820;2023-10-08T10:55:31;2.63;;;2.38;;
40595;SDS011;26304;48.794;9.820;2023-10-08T10:57:54;3.35;;;2.88;;
40595;SDS011;26304;48.794;9.820;2023-10-08T11:00:25;2.90;;;2.58;;
40595;SDS011;26304;48.794;9.820;2023-10-08T11:03:06;3.53;;;2.85;;
40595;SDS011;26304;48.794;9.820;2023-10-08T11:05:38;3.00;;;2.70;;
40595;SDS011;26304;48.794;9.820;2023-10-08T11:08:08;3.00;;;2.45;;
40595;SDS011;26304;48.794;9.820;2023-10-08T11:10:36;4.18;;;2.47;;
40595;SDS011;26304;48.794;9.820;2023-10-08T11:13:00;2.85;;;2.50;;
40595;SDS011;26304;48.794;9.820;2023-10-08T11:15:23;3.58;;;2.80;;
40595;SDS011;26304;48.794;9.820;2023-10-08T11:17:58;3.60;;;2.60;;
40595;SDS011;26304;48.794;9.820;2023-10-08T11:20:24;3.00;;;2.70;;
40595;SDS011;26304;48.794;9.820;2023-10-08T11:22:48;3.05;;;2.75;;
40595;SDS011;26304;48.794;9.820;2023-10-08T11:25:20;3.90;;;3.03;;
40595;SDS011;26304;48.794;9.820;2023-10-08T11:27:44;3.10;;;2.60;;
40595;SDS011;26304;48.794;9.820;2023-10-08T11:30:06;4.05;;;2.88;;
40595;SDS011;26304;48.794;9.820;2023-10-08T11:32:31;3.88;;;2.75;;
40595;SDS011;26304;48.794;9.820;2023-10-08T11:34:54;2.88;;;2.50;;
40595;SDS011;26304;48.794;9.820;2023-10-08T11:37:26;2.90;;;2.60;;
40595;SDS011;26304;48.794;9.820;2023-10-08T11:39:50;2.97;;;2.67;;
40595;SDS011;26304;48.794;9.820;2023-10-08T11:42:14;3.47;;;2.72;;
40595;SDS011;26304;48.794;9.820;2023-10-08T11:45:01;3.28;;;2.97;;
40595;SDS011;26304;48.794;9.820;2023-10-08T11:47:38;3.00;;;2.70;;
40595;SDS011;26304;48.794;9.820;2023-10-08T11:50:03;3.25;;;2.55;;
40595;SDS011;26304;48.794;9.820;2023-10-08T11:52:31;3.60;;;2.90;;
40595;SDS011;26304;48.794;9.820;2023-10-08T11:54:55;3.20;;;2.72;;
40595;SDS011;26304;48.794;9.820;2023-10-08T11:57:17;2.22;;;2.03;;
40595;SDS011;26304;48.794;9.820;2023-10-08T11:59:43;3.55;;;2.90;;
40595;SDS011;26304;48.794;9.820;2023-10-08T12:02:07;4.28;;;2.90;;
40595;SDS011;26304;48.794;9.820;2023-10-08T12:04:30;3.13;;;2.70;;
40595;SDS011;26304;48.794;9.820;2023-10-08T12:06:52;3.20;;;2.67;;
40595;SDS011;26304;48.794;9.820;2023-10-08T12:09:16;4.45;;;2.70;;
40595;SDS011;26304;48.794;9.820;2023-10-08T12:11:41;5.57;;;2.80;;
40595;SDS011;26304;48.794;9.820;2023-10-08T12:14:04;4.45;;;2.80;;
40595;SDS011;26304;48.794;9.820;2023-10-08T12:16:27;3.03;;;2.70;;
40595;SDS011;26304;48.794;9.820;2023-10-08T12:18:51;3.47;;;2.40;;
40595;SDS011;26304;48.794;9.820;2023-10-08T12:21:19;4.38;;;2.60;;
40595;SDS011;26304;48.794;9.820;2023-10-08T12:23:42;3.20;;;2.63;;
40595;SDS011;26304;48.794;9.820;2023-10-08T12:26:07;3.33;;;2.47;;
40595;SDS011;26304;48.794;9.820;2023-10-08T12:28:31;3.45;;;3.00;;
40595;SDS011;26304;48.794;9.820;2023-10-08T12:30:55;3.25;;;2.65;;
40595;SDS011;26304;48.794;9.820;2023-10-08T12:33:18;3.40;;;2.75;;
40595;SDS011;26304;48.794;9.820;2023-10-08T12:35:40;4.15;;;2.97;;
40595;SDS011;26304;48.794;9.820;2023-10-08T12:38:04;3.28;;;2.90;;
40595;SDS011;26304;48.794;9.820;2023-10-08T12:40:26;3.33;;;2.63;;
40595;SDS011;26304;48.794;9.820;2023-10-08T12:43:03;2.67;;;2.47;;
40595;SDS011;26304;48.794;9.820;2023-10-08T12:45:26;5.28;;;3.13;;
40595;SDS011;26304;48.794;9.820;2023-10-08T12:47:51;2.78;;;2.47;;
40595;SDS011;26304;48.794;9.820;2023-10-08T12:50:14;4.65;;;2.85;;
40595;SDS011;26304;48.794;9.820;2023-10-08T12:52:37;4.78;;;3.13;;
40595;SDS011;26304;48.794;9.820;2023-10-08T12:55:06;3.10;;;2.80;;
40595;SDS011;26304;48.794;9.820;2023-10-08T12:57:29;3.25;;;2.80;;
40595;SDS011;26304;48.794;9.820;2023-10-08T12:59:54;3.75;;;3.15;;
40595;SDS011;26304;48.794;9.820;2023-10-08T13:02:19;4.95;;;2.75;;
40595;SDS011;26304;48.794;9.820;2023-10-08T13:04:42;4.95;;;2.97;;
40595;SDS011;26304;48.794;9.820;2023-10-08T13:07:06;4.63;;;2.70;;
40595;SDS011;26304;48.794;9.820;2023-10-08T13:09:29;3.53;;;2.88;;
40595;SDS011;26304;48.794;9.820;2023-10-08T13:11:52;5.95;;;3.20;;
40595;SDS011;26304;48.794;9.820;2023-10-08T13:14:15;6.25;;;3.60;;
40595;SDS011;26304;48.794;9.820;2023-10-08T13:16:37;3.92;;;3.17;;
40595;SDS011;26304;48.794;9.820;2023-10-08T13:19:02;5.75;;;3.35;;
40595;SDS011;26304;48.794;9.820;2023-10-08T13:21:25;4.35;;;2.60;;
40595;SDS011;26304;48.794;9.820;2023-10-08T13:23:49;5.25;;;2.80;;
40595;SDS011;26304;48.794;9.820;2023-10-08T13:26:11;7.10;;;2.95;;
40595;SDS011;26304;48.794;9.820;2023-10-08T13:28:37;3.65;;;2.70;;
40595;SDS011;26304;48.794;9.820;2023-10-08T13:31:01;3.35;;;2.28;;
40595;SDS011;26304;48.794;9.820;2023-10-08T13:33:30;5.57;;;2.80;;
40595;SDS011;26304;48.794;9.820;2023-10-08T13:35:54;5.70;;;3.30;;
40595;SDS011;26304;48.794;9.820;2023-10-08T13:38:16;4.05;;;3.05;;
40595;SDS011;26304;48.794;9.820;2023-10-08T13:40:40;6.20;;;3.08;;
40595;SDS011;26304;48.794;9.820;2023-10-08T13:43:22;3.78;;;3.03;;
40595;SDS011;26304;48.794;9.820;2023-10-08T13:45:54;10.05;;;6.20;;
40595;SDS011;26304;48.794;9.820;2023-10-08T13:48:16;7.13;;;4.25;;
40595;SDS011;26304;48.794;9.820;2023-10-08T13:50:39;7.00;;;4.38;;
40595;SDS011;26304;48.794;9.820;2023-10-08T13:53:04;7.25;;;4.43;;
40595;SDS011;26304;48.794;9.820;2023-10-08T13:55:27;9.95;;;4.82;;
40595;SDS011;26304;48.794;9.820;2023-10-08T13:57:50;9.30;;;5.13;;
40595;SDS011;26304;48.794;9.820;2023-10-08T14:00:13;7.55;;;4.82;;
40595;SDS011;26304;48.794;9.820;2023-10-08T14:02:37;7.57;;;4.28;;
40595;SDS011;26304;48.794;9.820;2023-10-08T14:05:00;7.55;;;4.80;;
40595;SDS011;26304;48.794;9.820;2023-10-08T14:07:25;6.93;;;4.90;;
40595;SDS011;26304;48.794;9.820;2023-10-08T14:09:49;9.40;;;4.60;;
40595;SDS011;26304;48.794;9.820;2023-10-08T14:12:12;8.98;;;5.00;;
40595;SDS011;26304;48.794;9.820;2023-10-08T14:14:35;7.00;;;4.10;;
40595;SDS011;26304;48.794;9.820;2023-10-08T14:17:02;7.65;;;4.30;;
40595;SDS011;26304;48.794;9.820;2023-10-08T14:19:26;6.53;;;3.70;;
40595;SDS011;26304;48.794;9.820;2023-10-08T14:21:57;5.15;;;3.65;;
40595;SDS011;26304;48.794;9.820;2023-10-08T14:24:24;8.05;;;4.10;;
40595;SDS011;26304;48.794;9.820;2023-10-08T14:26:50;6.28;;;3.90;;
40595;SDS011;26304;48.794;9.820;2023-10-08T14:29:15;6.68;;;4.35;;
40595;SDS011;26304;48.794;9.820;2023-10-08T14:31:38;7.15;;;4.10;;
40595;SDS011;26304;48.794;9.820;2023-10-08T14:34:00;4.05;;;3.65;;
40595;SDS011;26304;48.794;9.820;2023-10-08T14:36:39;6.18;;;3.47;;
40595;SDS011;26304;48.794;9.820;2023-10-08T14:39:19;7.25;;;4.13;;
40595;SDS011;26304;48.794;9.820;2023-10-08T14:42:01;6.00;;;3.83;;
40595;SDS011;26304;48.794;9.820;2023-10-08T14:44:43;6.45;;;4.13;;
40595;SDS011;26304;48.794;9.820;2023-10-08T14:47:07;9.68;;;4.10;;